createdAt,value
2019-05-10T00:01:07.338Z,93.60
2019-05-10T00:03:54.041Z,94.20
2019-05-10T00:06:40.879Z,93.80
2019-05-10T00:09:08.943Z,94.00
2019-05-10T00:11:39.430Z,94.00
2019-05-10T00:14:11.435Z,94.00
2019-05-10T00:16:40.146Z,94.00
2019-05-10T00:19:08.938Z,93.90
2019-05-10T00:21:37.797Z,93.90
2019-05-10T00:24:06.484Z,94.30
2019-05-10T00:26:35.169Z,94.60
2019-05-10T00:29:03.859Z,94.60
2019-05-10T00:31:32.560Z,95.00
2019-05-10T00:34:01.454Z,95.30
2019-05-10T00:36:30.165Z,95.20
2019-05-10T00:38:58.746Z,95.40
2019-05-10T00:41:27.591Z,95.60
2019-05-10T00:43:56.254Z,95.40
2019-05-10T00:46:24.932Z,95.40
2019-05-10T00:48:53.693Z,95.80
2019-05-10T00:51:22.474Z,96.10
2019-05-10T00:53:51.256Z,96.30
2019-05-10T00:56:20.037Z,96.30
2019-05-10T00:58:48.924Z,96.20
2019-05-10T01:01:18.876Z,96.00
2019-05-10T01:03:47.599Z,96.00
2019-05-10T01:06:16.211Z,96.20
2019-05-10T01:08:44.983Z,96.30
2019-05-10T01:11:13.671Z,96.30
2019-05-10T01:13:42.268Z,96.20
2019-05-10T01:16:10.988Z,96.70
2019-05-10T01:18:39.610Z,96.50
2019-05-10T01:21:08.394Z,96.20
2019-05-10T01:23:37.005Z,96.50
2019-05-10T01:26:05.781Z,96.80
2019-05-10T01:28:34.528Z,96.70
2019-05-10T01:31:03.171Z,96.50
2019-05-10T01:33:31.934Z,96.80
2019-05-10T01:36:00.563Z,96.90
2019-05-10T01:38:29.186Z,96.60
2019-05-10T01:40:57.823Z,96.40
2019-05-10T01:43:28.577Z,96.60
2019-05-10T01:45:57.221Z,96.90
2019-05-10T01:48:25.859Z,97.10
2019-05-10T01:50:54.495Z,97.10
2019-05-10T01:53:23.128Z,96.90
2019-05-10T01:55:52.938Z,97.20
2019-05-10T01:58:21.799Z,96.90
2019-05-10T02:00:50.490Z,96.80
2019-05-10T02:03:19.138Z,97.10
2019-05-10T02:05:48.850Z,96.90
2019-05-10T02:08:17.567Z,96.90
2019-05-10T02:10:46.170Z,96.90
2019-05-10T02:13:15.003Z,96.70
2019-05-10T02:15:43.682Z,96.60
2019-05-10T02:18:12.458Z,96.50
2019-05-10T02:20:41.238Z,96.50
2019-05-10T02:23:09.845Z,96.70
2019-05-10T02:25:38.485Z,96.60
2019-05-10T02:28:07.317Z,96.90
2019-05-10T02:30:35.935Z,97.00
2019-05-10T02:33:04.903Z,97.00
2019-05-10T02:35:33.624Z,97.10
2019-05-10T02:38:02.256Z,97.30
2019-05-10T02:40:31.043Z,97.00
2019-05-10T02:42:59.725Z,97.20
2019-05-10T02:45:28.499Z,97.10
2019-05-10T02:47:57.206Z,97.30
2019-05-10T02:50:25.846Z,97.20
2019-05-10T02:52:54.712Z,97.30
2019-05-10T02:55:23.997Z,97.20
2019-05-10T02:57:54.614Z,96.90
2019-05-10T03:00:24.752Z,97.00
2019-05-10T03:02:55.039Z,97.00
2019-05-10T03:05:26.716Z,96.90
2019-05-10T03:07:58.424Z,97.10
2019-05-10T03:10:30.112Z,97.40
2019-05-10T03:13:01.635Z,97.50
2019-05-10T03:15:35.545Z,97.20
2019-05-10T03:18:04.632Z,97.10
2019-05-10T03:20:35.658Z,97.20
2019-05-10T03:23:06.349Z,96.90
2019-05-10T03:25:34.954Z,96.90
2019-05-10T03:28:03.682Z,97.00
2019-05-10T03:30:33.669Z,96.90
2019-05-10T03:33:03.218Z,96.80
2019-05-10T03:35:33.087Z,97.10
2019-05-10T03:38:01.768Z,97.40
2019-05-10T03:40:30.603Z,97.10
2019-05-10T03:42:59.340Z,97.20
2019-05-10T03:45:28.182Z,96.80
2019-05-10T03:47:56.754Z,97.10
2019-05-10T03:50:25.362Z,97.40
2019-05-10T03:52:54.050Z,97.50
2019-05-10T03:55:22.834Z,97.50
2019-05-10T03:57:51.434Z,97.80
2019-05-10T04:00:20.611Z,98.00
2019-05-10T04:02:49.355Z,98.10
2019-05-10T04:05:18.128Z,98.10
2019-05-10T04:07:46.805Z,98.20
2019-05-10T04:10:20.100Z,98.50
2019-05-10T04:12:45.979Z,98.70
2019-05-10T04:15:16.314Z,98.60
2019-05-10T04:17:49.529Z,98.50
2019-05-10T04:20:15.373Z,98.50
2019-05-10T04:22:44.000Z,98.70
2019-05-10T04:25:13.459Z,98.60
2019-05-10T04:27:42.221Z,98.70
2019-05-10T04:30:11.178Z,98.60
2019-05-10T04:32:39.816Z,98.80
2019-05-10T04:35:08.569Z,98.70
2019-05-10T04:37:37.233Z,98.80
2019-05-10T04:40:08.183Z,98.80
2019-05-10T04:42:36.930Z,98.60
2019-05-10T04:45:09.047Z,98.80
2019-05-10T04:47:37.739Z,98.80
2019-05-10T04:50:06.923Z,98.50
2019-05-10T04:52:35.645Z,98.40
2019-05-10T04:55:06.325Z,98.30
2019-05-10T04:57:49.326Z,98.40
2019-05-10T05:00:09.652Z,98.30
2019-05-10T05:02:38.329Z,98.30
2019-05-10T05:05:07.718Z,98.40
2019-05-10T05:07:36.456Z,98.30
2019-05-10T05:10:08.384Z,98.30
2019-05-10T05:12:37.020Z,98.40
2019-05-10T05:15:08.797Z,98.40
2019-05-10T05:17:37.514Z,98.10
2019-05-10T05:20:06.627Z,98.20
2019-05-10T05:22:35.326Z,98.20
2019-05-10T05:25:06.024Z,98.20
2019-05-10T05:27:34.627Z,98.00
2019-05-10T05:30:05.253Z,98.10
2019-05-10T05:32:38.631Z,98.10
2019-05-10T05:35:05.481Z,97.80
2019-05-10T05:37:34.253Z,97.70
2019-05-10T05:40:02.996Z,98.00
2019-05-10T05:42:31.815Z,97.70
2019-05-10T05:45:19.839Z,98.00
2019-05-10T05:47:49.503Z,97.90
2019-05-10T05:50:18.185Z,98.00
2019-05-10T05:52:46.850Z,97.90
2019-05-10T05:55:15.581Z,97.80
2019-05-10T05:57:44.220Z,97.80
2019-05-10T06:00:13.101Z,97.90
2019-05-10T06:02:45.083Z,97.60
2019-05-10T06:05:12.226Z,97.70
2019-05-10T06:07:40.870Z,97.80
2019-05-10T06:10:16.323Z,97.60
2019-05-10T06:12:44.719Z,97.60
2019-05-10T06:15:10.385Z,97.40
2019-05-10T06:17:39.116Z,98.00
2019-05-10T06:20:08.595Z,97.90
2019-05-10T06:22:43.222Z,97.90
2019-05-10T06:25:09.012Z,97.70
2019-05-10T06:27:40.928Z,97.50
2019-05-10T06:30:08.775Z,97.30
2019-05-10T06:32:37.525Z,97.20
2019-05-10T06:35:07.576Z,97.00
2019-05-10T06:37:36.283Z,97.20
2019-05-10T06:40:06.845Z,96.60
2019-05-10T06:42:36.269Z,96.70
2019-05-10T06:45:14.291Z,96.70
2019-05-10T06:47:41.982Z,96.30
2019-05-10T06:50:08.322Z,96.10
2019-05-10T06:52:37.024Z,96.40
2019-05-10T06:55:07.385Z,96.00
2019-05-10T06:57:36.016Z,95.90
2019-05-10T07:00:08.106Z,95.90
2019-05-10T07:02:37.077Z,95.70
2019-05-10T07:05:06.123Z,95.40
2019-05-10T07:07:43.976Z,95.70
2019-05-10T07:10:17.769Z,95.70
2019-05-10T07:12:37.906Z,95.60
2019-05-10T07:15:07.792Z,95.40
2019-05-10T07:17:41.442Z,95.40
2019-05-10T07:20:08.027Z,95.40
2019-05-10T07:22:36.772Z,95.20
2019-05-10T07:25:08.555Z,95.30
2019-05-10T07:27:38.737Z,94.90
2019-05-10T07:30:08.014Z,94.60
2019-05-10T07:32:36.781Z,94.40
2019-05-10T07:35:07.217Z,94.70
2019-05-10T07:37:35.969Z,94.60
2019-05-10T07:40:07.143Z,94.40
2019-05-10T07:42:39.996Z,94.40
2019-05-10T07:45:09.309Z,93.80
2019-05-10T07:47:38.290Z,93.10
2019-05-10T07:50:09.560Z,93.80
2019-05-10T07:52:43.273Z,93.20
2019-05-10T07:55:10.274Z,93.20
2019-05-10T07:57:38.543Z,93.70
2019-05-10T08:00:07.966Z,93.20
2019-05-10T08:02:36.750Z,93.80
2019-05-10T08:05:10.760Z,92.40
2019-05-10T08:07:38.672Z,93.30
2019-05-10T08:10:09.013Z,94.00
2019-05-10T08:12:41.419Z,94.10
2019-05-10T08:15:09.034Z,95.30
2019-05-10T08:17:41.115Z,95.80
2019-05-10T08:20:15.052Z,95.50
2019-05-10T08:22:45.902Z,95.60
2019-05-10T08:25:09.685Z,96.30
2019-05-10T08:27:43.928Z,95.80
2019-05-10T08:30:22.631Z,96.10
2019-05-10T08:32:39.747Z,95.70
2019-05-10T08:35:15.974Z,94.80
2019-05-10T08:37:38.868Z,95.70
2019-05-10T08:40:07.605Z,95.80
2019-05-10T08:42:45.488Z,95.50
2019-05-10T08:45:08.945Z,95.20
2019-05-10T08:47:37.989Z,94.80
2019-05-10T08:50:22.708Z,95.30
2019-05-10T08:52:37.032Z,95.10
2019-05-10T08:55:08.494Z,94.90
2019-05-10T08:57:44.545Z,95.60
2019-05-10T09:00:13.026Z,94.60
2019-05-10T09:02:42.664Z,94.20
2019-05-10T09:05:12.456Z,93.60
2019-05-10T09:07:43.012Z,93.30
2019-05-10T09:10:12.808Z,93.40
2019-05-10T09:12:51.048Z,92.90
2019-05-10T09:15:13.506Z,93.10
2019-05-10T09:17:43.006Z,92.50
2019-05-10T09:20:20.719Z,92.60
2019-05-10T09:22:42.758Z,91.80
2019-05-10T09:25:12.858Z,91.10
2019-05-10T09:27:43.253Z,91.00
2019-05-10T09:30:14.216Z,90.70
2019-05-10T09:32:43.621Z,90.40
2019-05-10T09:35:12.961Z,89.90
2019-05-10T09:37:42.314Z,87.90
2019-05-10T09:40:13.199Z,87.70
2019-05-10T09:42:43.571Z,85.30
2019-05-10T09:45:12.854Z,84.80
2019-05-10T09:47:43.367Z,83.90
2019-05-10T09:50:12.903Z,82.50
2019-05-10T09:52:41.783Z,82.70
2019-05-10T09:55:14.801Z,82.60
2019-05-10T09:57:40.893Z,83.90
2019-05-10T10:00:11.687Z,82.60
2019-05-10T10:02:40.914Z,83.10
2019-05-10T10:05:10.352Z,82.30
2019-05-10T10:07:39.100Z,83.00
2019-05-10T10:10:12.892Z,84.00
2019-05-10T10:12:38.482Z,82.60
2019-05-10T10:15:09.560Z,81.90
2019-05-10T10:17:41.907Z,80.30
2019-05-10T10:20:08.511Z,78.50
2019-05-10T10:22:38.193Z,80.50
2019-05-10T10:25:07.581Z,79.10
2019-05-10T10:27:39.330Z,81.00
2019-05-10T10:30:12.747Z,79.50
2019-05-10T10:32:39.388Z,80.80
2019-05-10T10:35:08.177Z,79.60
2019-05-10T10:37:37.920Z,79.30
2019-05-10T10:40:08.737Z,78.90
2019-05-10T10:42:38.234Z,76.80
2019-05-10T10:45:08.941Z,77.40
2019-05-10T10:47:38.280Z,74.10
2019-05-10T10:50:13.214Z,75.00
2019-05-10T10:52:38.900Z,75.20
2019-05-10T10:55:11.320Z,70.60
2019-05-10T10:57:38.836Z,67.80
2019-05-10T11:00:10.481Z,68.20
2019-05-10T11:02:41.481Z,69.20
2019-05-10T11:05:10.116Z,67.40
2019-05-10T11:07:44.275Z,65.30
2019-05-10T11:10:16.097Z,63.70
2019-05-10T11:12:41.223Z,69.30
2019-05-10T11:15:11.423Z,67.30
2019-05-10T11:17:40.891Z,69.70
2019-05-10T11:20:11.572Z,69.00
2019-05-10T11:22:41.911Z,70.10
2019-05-10T11:25:12.819Z,69.20
2019-05-10T11:27:41.779Z,71.80
2019-05-10T11:30:12.350Z,68.10
2019-05-10T11:32:41.851Z,70.60
2019-05-10T11:35:11.966Z,69.50
2019-05-10T11:37:45.315Z,69.10
2019-05-10T11:40:12.406Z,70.50
2019-05-10T11:42:45.400Z,70.90
2019-05-10T11:45:11.717Z,71.80
2019-05-10T11:47:40.919Z,67.60
2019-05-10T11:50:10.944Z,67.60
2019-05-10T11:52:40.795Z,67.00
2019-05-10T11:55:11.460Z,61.40
2019-05-10T11:57:43.918Z,63.70
2019-05-10T12:00:24.671Z,66.70
2019-05-10T12:03:01.097Z,67.40
2019-05-10T12:10:20.239Z,68.30
2019-05-10T12:12:59.843Z,64.80
2019-05-10T12:15:14.581Z,62.80
2019-05-10T12:20:16.985Z,64.90
2019-05-10T12:22:47.398Z,65.00
2019-05-10T12:25:59.930Z,65.30
2019-05-10T12:26:18.021Z,64.80
2019-05-10T12:26:18.949Z,63.00
2019-05-10T12:26:19.671Z,63.80
2019-05-10T12:27:49.056Z,66.10
2019-05-10T12:30:16.144Z,65.20
2019-05-10T12:32:55.760Z,67.60
2019-05-10T12:35:15.497Z,68.30
2019-05-10T12:37:46.450Z,68.90
2019-05-10T12:40:15.350Z,65.10
2019-05-10T12:42:46.883Z,61.40
2019-05-10T12:45:15.931Z,60.20
2019-05-10T12:47:44.701Z,63.10
2019-05-10T12:50:13.981Z,63.70
2019-05-10T12:52:43.265Z,63.60
2019-05-10T12:55:12.755Z,63.80
2019-05-10T12:57:43.303Z,59.90
2019-05-10T13:00:15.600Z,63.70
2019-05-10T13:02:44.884Z,60.00
2019-05-10T13:05:15.598Z,59.90
2019-05-10T13:07:44.229Z,60.10
2019-05-10T13:10:13.067Z,58.50
2019-05-10T13:12:44.535Z,59.60
2019-05-10T13:15:12.604Z,61.70
2019-05-10T13:17:43.965Z,60.00
2019-05-10T13:20:14.279Z,60.40
2019-05-10T13:22:42.970Z,56.70
2019-05-10T13:25:11.750Z,55.30
2019-05-10T13:27:40.494Z,55.30
2019-05-10T13:30:09.683Z,54.80
2019-05-10T13:32:38.441Z,54.80
2019-05-10T13:35:07.793Z,56.30
2019-05-10T13:37:36.516Z,57.10
2019-05-10T13:40:08.079Z,59.90
2019-05-10T13:42:43.222Z,62.80
2019-05-10T13:45:07.869Z,61.20
2019-05-10T13:47:36.718Z,62.20
2019-05-10T13:50:07.588Z,58.10
2019-05-10T13:52:38.814Z,56.90
2019-05-10T13:55:10.001Z,55.80
2019-05-10T13:57:38.728Z,56.90
2019-05-10T14:00:08.360Z,59.10
2019-05-10T14:02:36.974Z,61.50
2019-05-10T14:05:06.832Z,63.00
2019-05-10T14:07:35.617Z,64.10
2019-05-10T14:10:05.597Z,63.40
2019-05-10T14:12:34.478Z,64.90
2019-05-10T14:15:08.924Z,66.40
2019-05-10T14:17:33.724Z,66.30
2019-05-10T14:20:02.581Z,63.50
2019-05-10T14:22:31.204Z,61.30
2019-05-10T14:24:59.883Z,61.30
2019-05-10T14:27:29.834Z,63.40
2019-05-10T14:29:58.897Z,66.30
2019-05-10T14:32:27.735Z,67.80
2019-05-10T14:34:56.514Z,63.00
2019-05-10T14:37:26.655Z,63.30
2019-05-10T14:39:55.493Z,64.50
2019-05-10T14:42:31.375Z,64.30
2019-05-10T14:44:54.649Z,62.60
2019-05-10T14:47:23.354Z,63.80
2019-05-10T14:49:52.007Z,64.70
2019-05-10T14:52:22.582Z,64.60
2019-05-10T14:54:55.516Z,65.80
2019-05-10T14:57:22.740Z,62.40
2019-05-10T14:59:51.579Z,61.70
2019-05-10T15:02:22.656Z,64.90
2019-05-10T15:04:50.894Z,61.10
2019-05-10T15:07:19.582Z,61.00
2019-05-10T15:09:48.380Z,62.60
2019-05-10T15:12:22.284Z,58.70
2019-05-10T15:14:47.369Z,57.70
2019-05-10T15:17:19.609Z,60.70
2019-05-10T15:19:55.738Z,60.70
2019-05-10T15:22:18.360Z,61.20
2019-05-10T15:24:47.288Z,64.30
2019-05-10T15:27:21.230Z,64.90
2019-05-10T15:29:46.534Z,66.90
2019-05-10T15:32:15.458Z,66.40
2019-05-10T15:35:02.784Z,66.60
2019-05-10T15:37:17.579Z,67.70
2019-05-10T15:39:45.219Z,67.30
2019-05-10T15:42:13.913Z,68.50
2019-05-10T15:44:42.794Z,67.10
2019-05-10T15:47:14.583Z,66.60
2019-05-10T15:49:41.976Z,66.00
2019-05-10T15:52:17.279Z,66.20
2019-05-10T15:54:44.635Z,65.50
2019-05-10T15:57:14.510Z,66.90
2019-05-10T15:59:41.601Z,65.50
2019-05-10T16:02:10.448Z,61.80
2019-05-10T16:04:39.060Z,59.80
2019-05-10T16:07:09.331Z,59.80
2019-05-10T16:09:38.167Z,58.70
2019-05-10T16:12:08.752Z,59.40
2019-05-10T16:14:39.222Z,59.30
2019-05-10T16:17:10.221Z,62.00
2019-05-10T16:19:37.965Z,64.50
2019-05-10T16:22:06.760Z,64.40
2019-05-10T16:24:35.552Z,65.10
2019-05-10T16:27:04.374Z,64.90
2019-05-10T16:29:33.627Z,67.40
2019-05-10T16:32:03.443Z,68.60
2019-05-10T16:34:34.078Z,69.30
2019-05-10T16:37:02.574Z,68.70
2019-05-10T16:39:31.304Z,67.90
2019-05-10T16:42:00.097Z,66.30
2019-05-10T16:44:28.843Z,66.40
2019-05-10T16:46:57.524Z,66.40
2019-05-10T16:49:26.312Z,67.10
2019-05-10T16:51:55.067Z,67.20
2019-05-10T16:54:25.387Z,66.90
2019-05-10T16:56:59.571Z,68.50
2019-05-10T16:59:29.853Z,69.10
2019-05-10T17:02:03.532Z,68.90
2019-05-10T17:04:25.405Z,68.90
2019-05-10T17:06:56.561Z,68.70
2019-05-10T17:09:24.441Z,68.80
2019-05-10T17:11:53.255Z,69.70
2019-05-10T17:14:21.929Z,69.00
2019-05-10T17:16:58.492Z,68.90
2019-05-10T17:19:20.881Z,69.40
2019-05-10T17:21:52.299Z,70.50
2019-05-10T17:24:23.901Z,68.30
2019-05-10T17:26:51.187Z,69.70
2019-05-10T17:29:19.813Z,69.40
2019-05-10T17:31:48.673Z,68.20
2019-05-10T17:34:27.616Z,69.20
2019-05-10T17:36:51.907Z,69.50
2019-05-10T17:39:18.578Z,70.50
2019-05-10T17:41:47.270Z,71.00
2019-05-10T17:44:17.544Z,71.30
2019-05-10T17:46:50.342Z,71.70
2019-05-10T17:49:18.521Z,73.00
2019-05-10T17:51:47.051Z,73.10
2019-05-10T17:54:15.816Z,74.00
2019-05-10T17:56:44.428Z,73.40
2019-05-10T17:59:13.993Z,73.90
2019-05-10T18:01:42.890Z,72.80
2019-05-10T18:04:11.588Z,73.60
2019-05-10T18:06:40.298Z,74.00
2019-05-10T18:09:09.075Z,74.60
2019-05-10T18:11:42.914Z,75.00
2019-05-10T18:14:12.459Z,75.30
2019-05-10T18:16:41.967Z,75.40
2019-05-10T18:19:08.926Z,75.60
2019-05-10T18:21:37.620Z,76.40
2019-05-10T18:24:06.484Z,76.30
2019-05-10T18:26:39.565Z,76.80
2019-05-10T18:29:05.469Z,76.10
2019-05-10T18:31:37.699Z,76.90
2019-05-10T18:34:06.379Z,77.50
2019-05-10T18:36:51.084Z,77.80
2019-05-10T18:39:09.096Z,77.90
2019-05-10T18:41:41.379Z,77.80
2019-05-10T18:44:08.328Z,77.40
2019-05-10T18:46:38.033Z,78.30
2019-05-10T18:49:06.953Z,78.60
2019-05-10T18:51:35.731Z,78.90
2019-05-10T18:54:04.585Z,79.30
2019-05-10T18:56:33.369Z,79.10
2019-05-10T18:59:07.516Z,79.70
2019-05-10T19:01:38.867Z,79.30
2019-05-10T19:04:07.532Z,79.40
2019-05-10T19:06:34.444Z,80.70
2019-05-10T19:09:04.933Z,79.50
2019-05-10T19:11:38.786Z,79.60
2019-05-10T19:14:04.925Z,80.40
2019-05-10T19:16:34.374Z,80.70
2019-05-10T19:19:04.444Z,81.40
2019-05-10T19:21:36.932Z,81.60
2019-05-10T19:24:03.674Z,81.70
2019-05-10T19:26:32.370Z,82.20
2019-05-10T19:29:05.352Z,82.40
2019-05-10T19:31:37.258Z,82.90
2019-05-10T19:34:01.742Z,82.90
2019-05-10T19:36:49.688Z,83.00
2019-05-10T19:39:18.278Z,83.00
2019-05-10T19:41:47.030Z,82.80
2019-05-10T19:44:15.640Z,83.00
2019-05-10T19:46:44.385Z,83.70
2019-05-10T19:49:15.460Z,83.70
2019-05-10T19:51:48.658Z,83.80
2019-05-10T19:54:19.485Z,83.40
2019-05-10T19:56:44.995Z,82.80
2019-05-10T19:59:13.653Z,82.40
2019-05-10T20:01:45.401Z,82.90
2019-05-10T20:04:14.034Z,82.60
2019-05-10T20:06:43.059Z,83.20
2019-05-10T20:09:11.798Z,83.60
2019-05-10T20:11:40.614Z,82.90
2019-05-10T20:14:09.261Z,82.80
2019-05-10T20:16:51.490Z,82.50
2019-05-10T20:19:09.358Z,82.60
2019-05-10T20:21:38.030Z,82.40
2019-05-10T20:24:06.616Z,83.00
2019-05-10T20:26:35.235Z,83.00
2019-05-10T20:29:03.828Z,82.10
2019-05-10T20:31:32.691Z,81.90
2019-05-10T20:34:01.272Z,83.50
2019-05-10T20:36:30.040Z,86.40
2019-05-10T20:39:00.890Z,85.30
2019-05-10T20:41:28.883Z,84.50
2019-05-10T20:43:57.591Z,84.10
2019-05-10T20:46:26.165Z,82.30
2019-05-10T20:48:54.855Z,82.00
2019-05-10T20:51:23.481Z,83.30
2019-05-10T20:53:52.080Z,84.40
2019-05-10T20:56:20.674Z,85.20
2019-05-10T20:58:49.278Z,84.70
2019-05-10T21:01:17.889Z,84.00
2019-05-10T21:03:46.492Z,83.40
2019-05-10T21:06:15.175Z,83.00
2019-05-10T21:08:43.784Z,84.10
2019-05-10T21:11:12.489Z,84.10
2019-05-10T21:13:41.085Z,85.10
2019-05-10T21:16:09.695Z,85.20
2019-05-10T21:18:38.372Z,85.70
2019-05-10T21:21:07.153Z,86.20
2019-05-10T21:23:35.744Z,87.60
2019-05-10T21:26:04.462Z,88.00
2019-05-10T21:28:33.072Z,87.70
2019-05-10T21:31:01.660Z,87.60
2019-05-10T21:33:30.273Z,88.60
2019-05-10T21:35:58.873Z,89.80
2019-05-10T21:38:33.193Z,90.00
2019-05-10T21:40:57.717Z,89.80
2019-05-10T21:43:26.330Z,89.30
2019-05-10T21:45:54.917Z,90.10
2019-05-10T21:48:23.531Z,89.80
2019-05-10T21:50:52.149Z,90.50
2019-05-10T21:53:20.729Z,90.20
2019-05-10T21:55:49.339Z,90.20
2019-05-10T21:58:17.960Z,90.90
2019-05-10T22:00:50.179Z,91.10
2019-05-10T22:03:19.265Z,91.10
2019-05-10T22:05:47.854Z,90.90
2019-05-10T22:08:16.534Z,90.80
2019-05-10T22:10:45.164Z,91.20
2019-05-10T22:13:13.746Z,91.20
2019-05-10T22:15:42.369Z,91.40
2019-05-10T22:18:10.951Z,91.60
2019-05-10T22:20:39.662Z,91.50
2019-05-10T22:23:08.251Z,91.50
2019-05-10T22:25:36.843Z,91.60
2019-05-10T22:28:24.817Z,91.50
2019-05-10T22:31:39.162Z,91.40
2019-05-10T22:34:07.925Z,91.30
2019-05-10T22:36:36.540Z,91.60
2019-05-10T22:39:07.616Z,91.40
2019-05-10T22:41:36.571Z,91.20
2019-05-10T22:44:05.251Z,91.10
2019-05-10T22:46:33.873Z,90.80
2019-05-10T22:49:02.546Z,90.90
2019-05-10T22:51:31.293Z,91.00
2019-05-10T22:54:00.482Z,91.10
2019-05-10T22:56:29.189Z,91.10
2019-05-10T22:58:57.822Z,91.30
2019-05-10T23:01:26.664Z,91.90
2019-05-10T23:03:55.404Z,91.50
2019-05-10T23:06:24.006Z,91.90
2019-05-10T23:08:52.693Z,91.70
2019-05-10T23:11:21.330Z,91.90
2019-05-10T23:13:49.964Z,92.20
2019-05-10T23:16:18.658Z,92.20
2019-05-10T23:18:47.278Z,92.10
2019-05-10T23:21:15.909Z,92.60
2019-05-10T23:23:44.577Z,92.70
2019-05-10T23:26:13.278Z,92.90
2019-05-10T23:28:41.885Z,92.80
2019-05-10T23:31:10.529Z,92.90
2019-05-10T23:33:39.134Z,93.20
2019-05-10T23:36:07.961Z,93.10
2019-05-10T23:38:36.605Z,93.10
2019-05-10T23:41:05.358Z,93.20
2019-05-10T23:43:33.985Z,93.20
2019-05-10T23:46:03.777Z,93.20
2019-05-10T23:48:32.404Z,93.30
2019-05-10T23:51:01.049Z,93.50
2019-05-10T23:53:29.685Z,93.60
2019-05-10T23:55:58.289Z,93.40
2019-05-10T23:58:27.004Z,93.70
